Time;durP1;ratioP1;P1;durP2;ratioP2;P2;SDS_P1;SDS_P2;PMS_P1;PMS_P2;Temp;Humidity;BMP_temperature;BMP_pressure;BME280_temperature;BME280_humidity;BME280_pressure;Samples;Min_cycle;Max_cycle;Signal;HPM_P1;HPM_P2
2022/07/14 00:00:03;;;;;;;;;;;;;;;26.91;50.85;101938.41;7280419;19;154038;-62
2022/07/14 00:02:30;;;;;;;;;;;;;;;27.02;50.98;101933.28;7285945;19;152277;-63
2022/07/14 00:04:56;;;;;;;;;;;;;;;26.93;50.87;101938.91;7279830;19;153156;-63
2022/07/14 00:07:31;;;;;;;;;;;;;;;26.92;50.91;101944.91;7280657;19;152635;-64
2022/07/14 00:09:58;;;;;;;;;;;;;;;26.92;50.76;101939.25;7280748;19;153104;-63
2022/07/14 00:12:24;;;;;;;;;;;;;;;26.95;50.95;101936.56;7275472;19;152228;-63
2022/07/14 00:14:51;;;;;;;;;;;;;;;26.95;51.23;101933.75;7280849;19;152714;-63
2022/07/14 00:17:18;;;;;;;;;;;;;;;26.93;51.53;101930.41;7280045;19;153383;-63
2022/07/14 00:19:44;;;;;;;;;;;;;;;26.90;51.20;101928.22;7279624;19;153248;-63
2022/07/14 00:22:12;;;;;;;;;;;;;;;26.92;51.23;101927.91;7278752;19;153192;-63
2022/07/14 00:24:39;;;;;;;;;;;;;;;26.93;51.86;101929.56;7286678;19;152112;-63
2022/07/14 00:27:05;;;;;;;;;;;;;;;26.97;51.62;101924.91;7278437;19;152702;-63
2022/07/14 00:29:34;;;;;;;;;;;;;;;26.99;51.37;101928.22;7279488;19;152971;-63
2022/07/14 00:32:01;;;;;;;;;;;;;;;26.97;51.37;101916.41;7278735;19;154153;-62
2022/07/14 00:34:27;;;;;;;;;;;;;;;26.97;51.89;101925.75;7281839;19;153849;-63
2022/07/14 00:36:54;;;;;;;;;;;;;;;26.99;51.57;101931.06;7278313;19;152998;-63
2022/07/14 00:39:21;;;;;;;;;;;;;;;27.03;52.13;101923.56;7275266;19;153462;-63
2022/07/14 00:41:47;;;;;;;;;;;;;;;27.01;51.10;101919.41;7276272;19;152418;-62
2022/07/14 00:44:14;;;;;;;;;;;;;;;27.02;52.02;101921.09;7280417;19;152871;-62
2022/07/14 00:46:41;;;;;;;;;;;;;;;27.03;52.64;101917.91;7285453;19;152802;-62
2022/07/14 00:49:07;;;;;;;;;;;;;;;27.02;51.95;101918.25;7280416;19;154797;-62
2022/07/14 00:51:40;;;;;;;;;;;;;;;27.01;52.37;101919.41;7276140;19;154002;-62
2022/07/14 00:54:07;;;;;;;;;;;;;;;27.00;51.79;101929.91;7279885;19;153023;-62
2022/07/14 00:56:33;;;;;;;;;;;;;;;26.97;52.03;101917.25;7272940;19;152328;-62
2022/07/14 00:59:00;;;;;;;;;;;;;;;26.99;51.68;101916.88;7278773;19;153932;-63
2022/07/14 01:01:30;;;;;;;;;;;;;;;26.99;51.87;101914.88;7277296;19;154627;-63
2022/07/14 01:03:57;;;;;;;;;;;;;;;26.99;51.49;101911.22;7279252;19;152468;-62
2022/07/14 01:06:24;;;;;;;;;;;;;;;27.03;51.50;101912.22;7276377;19;154416;-62
2022/07/14 01:08:51;;;;;;;;;;;;;;;27.04;51.31;101913.06;7291375;19;152095;-62
2022/07/14 01:11:17;;;;;;;;;;;;;;;26.98;51.57;101912.41;7283156;19;153980;-62
2022/07/14 01:13:45;;;;;;;;;;;;;;;26.99;51.55;101916.88;7282252;19;153960;-62
2022/07/14 01:16:11;;;;;;;;;;;;;;;27.02;51.66;101918.25;7281275;19;153276;-63
2022/07/14 01:18:38;;;;;;;;;;;;;;;26.95;51.65;101930.91;7286545;19;154842;-62
2022/07/14 01:21:07;;;;;;;;;;;;;;;27.01;51.13;101927.91;7283954;19;153238;-62
2022/07/14 01:23:34;;;;;;;;;;;;;;;26.98;51.48;101918.88;7285056;19;153095;-62
2022/07/14 01:26:01;;;;;;;;;;;;;;;27.01;51.38;101925.91;7282683;19;152276;-61
2022/07/14 01:28:28;;;;;;;;;;;;;;;26.97;51.28;101937.09;7293254;19;152160;-61
2022/07/14 01:30:54;;;;;;;;;;;;;;;26.97;51.42;101931.44;7283538;19;153202;-62
2022/07/14 01:33:21;;;;;;;;;;;;;;;26.95;51.67;101928.06;7285519;19;152002;-61
2022/07/14 01:35:48;;;;;;;;;;;;;;;26.96;51.84;101928.91;7283601;19;152300;-61
2022/07/14 01:38:16;;;;;;;;;;;;;;;26.96;51.62;101926.91;7283205;19;152547;-62
2022/07/14 01:40:44;;;;;;;;;;;;;;;26.95;51.59;101922.38;7284210;19;152036;-62
2022/07/14 01:43:11;;;;;;;;;;;;;;;26.97;51.56;101924.91;7283888;19;154937;-62
2022/07/14 01:45:38;;;;;;;;;;;;;;;26.99;52.00;101925.41;7280685;19;154670;-61
2022/07/14 01:48:05;;;;;;;;;;;;;;;26.96;51.94;101926.91;7286287;19;152578;-61
2022/07/14 01:50:31;;;;;;;;;;;;;;;26.95;51.78;101930.91;7289085;19;151973;-61
2022/07/14 01:52:58;;;;;;;;;;;;;;;26.94;51.96;101934.06;7284759;19;152381;-61
2022/07/14 01:55:25;;;;;;;;;;;;;;;26.94;52.03;101936.88;7280774;19;153631;-62
2022/07/14 01:57:51;;;;;;;;;;;;;;;26.94;52.55;101936.88;7282194;19;153329;-61
2022/07/14 02:00:18;;;;;;;;;;;;;;;26.94;52.49;101937.72;7284266;19;152386;-61
2022/07/14 02:02:45;;;;;;;;;;;;;;;26.93;52.20;101929.56;7278039;19;154203;-61
2022/07/14 02:05:12;;;;;;;;;;;;;;;26.97;52.26;101933.41;7280919;19;153048;-61
2022/07/14 02:07:38;;;;;;;;;;;;;;;26.93;52.07;101926.75;7280162;19;153224;-61
2022/07/14 02:12:54;;;;;;;;;;;;;;;26.92;52.18;101925.06;7286127;19;153826;-61
2022/07/14 02:15:21;;;;;;;;;;;;;;;26.95;52.43;101925.22;7278932;19;153246;-61
2022/07/14 02:17:48;;;;;;;;;;;;;;;26.92;52.55;101925.91;7281230;19;154112;-61
2022/07/14 02:20:15;;;;;;;;;;;;;;;26.92;52.55;101925.91;7282143;19;152167;-60
2022/07/14 02:22:42;;;;;;;;;;;;;;;26.90;52.51;101931.03;7280546;19;153635;-61
2022/07/14 02:25:09;;;;;;;;;;;;;;;26.91;52.79;101923.38;7277330;19;152562;-62
2022/07/14 02:27:35;;;;;;;;;;;;;;;26.89;52.46;101929.38;7279080;19;152563;-62
2022/07/14 02:30:02;;;;;;;;;;;;;;;26.89;52.57;101920.84;7280441;19;152969;-61
2022/07/14 02:32:31;;;;;;;;;;;;;;;26.90;52.88;101919.69;7279972;19;153659;-61
2022/07/14 02:34:58;;;;;;;;;;;;;;;26.88;52.60;101907.88;7289099;19;151761;-61
2022/07/14 02:37:25;;;;;;;;;;;;;;;26.89;52.59;101918.03;7276658;19;156367;-60
2022/07/14 02:39:51;;;;;;;;;;;;;;;26.89;52.47;101918.03;7277296;19;153629;-61
2022/07/14 02:42:18;;;;;;;;;;;;;;;26.90;52.18;101927.38;7280527;19;152939;-61
2022/07/14 02:44:45;;;;;;;;;;;;;;;26.93;52.28;101924.75;7279395;19;153313;-61
2022/07/14 02:47:11;;;;;;;;;;;;;;;26.92;51.89;101922.22;7280554;19;153693;-61
2022/07/14 02:49:38;;;;;;;;;;;;;;;26.90;51.83;101913.19;7281955;19;153348;-61
2022/07/14 02:52:05;;;;;;;;;;;;;;;26.87;52.20;101917.53;7276459;19;153207;-62
2022/07/14 02:54:31;;;;;;;;;;;;;;;26.87;51.81;101920.38;7279045;19;152668;-61
2022/07/14 02:56:58;;;;;;;;;;;;;;;26.90;51.73;101910.34;7282645;19;153285;-62
2022/07/14 02:59:25;;;;;;;;;;;;;;;26.85;51.63;101914.19;7278805;19;152370;-61
2022/07/14 03:01:52;;;;;;;;;;;;;;;26.85;51.64;101914.19;7113622;19;3239780;-61
2022/07/14 03:04:19;;;;;;;;;;;;;;;26.85;51.20;101911.34;7281821;19;152796;-61
2022/07/14 03:06:46;;;;;;;;;;;;;;;26.85;51.03;101916.13;7280341;19;152634;-61
2022/07/14 03:09:13;;;;;;;;;;;;;;;26.87;51.16;101913.84;7282417;19;152703;-61
2022/07/14 03:11:40;;;;;;;;;;;;;;;26.82;51.93;101917.66;7279655;19;153401;-61
2022/07/14 03:14:06;;;;;;;;;;;;;;;26.81;51.60;101915.97;7279824;19;153903;-61
2022/07/14 03:16:34;;;;;;;;;;;;;;;26.82;51.23;101920.47;7281311;19;153629;-61
2022/07/14 03:19:01;;;;;;;;;;;;;;;26.81;51.60;101927.31;7290474;19;151819;-61
2022/07/14 03:21:27;;;;;;;;;;;;;;;26.79;51.46;101921.16;7280501;19;152633;-61
2022/07/14 03:23:57;;;;;;;;;;;;;;;26.80;51.80;101922.78;7281071;19;152231;-62
2022/07/14 03:26:24;;;;;;;;;;;;;;;26.78;51.60;101919.47;7277364;19;152644;-61
2022/07/14 03:28:51;;;;;;;;;;;;;;;26.78;51.21;101927.97;7280225;19;153054;-61
2022/07/14 03:31:17;;;;;;;;;;;;;;;26.79;50.98;101915.47;7279431;19;153788;-61
2022/07/14 03:33:44;;;;;;;;;;;;;;;26.80;50.97;101916.31;7282116;19;152399;-61
2022/07/14 03:36:11;;;;;;;;;;;;;;;26.79;51.61;101918.31;7279043;19;152176;-61
2022/07/14 03:38:38;;;;;;;;;;;;;;;26.78;51.45;101908.13;7288714;19;153248;-61
2022/07/14 03:41:05;;;;;;;;;;;;;;;26.80;51.27;101914.28;7280133;19;153155;-61
2022/07/14 03:43:35;;;;;;;;;;;;;;;26.77;50.88;101914.97;7281167;19;154039;-62
2022/07/14 03:46:08;;;;;;;;;;;;;;;26.81;51.08;101915.97;7279940;19;154368;-61
2022/07/14 03:48:35;;;;;;;;;;;;;;;26.78;51.41;101912.97;7282305;19;152578;-61
2022/07/14 03:51:02;;;;;;;;;;;;;;;26.75;51.62;101916.47;7277613;19;152937;-61
2022/07/14 03:53:30;;;;;;;;;;;;;;;26.73;51.04;101919.63;7281682;19;152407;-61
2022/07/14 03:55:57;;;;;;;;;;;;;;;26.73;51.08;101921.59;7279322;19;153300;-61
2022/07/14 03:58:24;;;;;;;;;;;;;;;26.78;51.02;101924.31;7279883;19;154288;-61
2022/07/14 04:00:51;;;;;;;;;;;;;;;26.73;50.87;101930.94;7286629;19;152053;-61
2022/07/14 04:03:18;;;;;;;;;;;;;;;26.75;50.85;101939.16;7281017;19;153269;-60
2022/07/14 04:05:48;;;;;;;;;;;;;;;26.71;51.04;101946.63;7280146;19;154199;-61
2022/07/14 04:08:14;;;;;;;;;;;;;;;26.68;50.67;101938.75;7278529;19;152668;-60
2022/07/14 04:10:41;;;;;;;;;;;;;;;26.75;50.78;101945.66;7277374;19;154257;-60
2022/07/14 04:13:08;;;;;;;;;;;;;;;26.70;50.53;101934.47;7279614;19;151966;-61
2022/07/14 04:15:36;;;;;;;;;;;;;;;26.70;50.43;101944.97;7279252;19;151993;-61
2022/07/14 04:18:03;;;;;;;;;;;;;;;26.70;50.40;101950.63;7277790;19;152129;-61
2022/07/14 04:20:30;;;;;;;;;;;;;;;26.69;49.80;101951.78;7278409;19;153382;-63
2022/07/14 04:22:56;;;;;;;;;;;;;;;26.61;49.77;101953.44;7286318;19;152482;-61
2022/07/14 04:25:24;;;;;;;;;;;;;;;26.68;48.91;101950.09;7280043;19;152407;-61
2022/07/14 04:27:51;;;;;;;;;;;;;;;26.61;49.32;101950.59;7279647;19;153726;-62
2022/07/14 04:30:18;;;;;;;;;;;;;;;26.60;49.15;101951.75;7279085;19;153220;-61
2022/07/14 04:32:44;;;;;;;;;;;;;;;26.58;49.02;101948.38;7278492;19;152334;-61
2022/07/14 04:35:12;;;;;;;;;;;;;;;26.61;49.01;101949.75;7280155;19;152950;-61
2022/07/14 04:37:38;;;;;;;;;;;;;;;26.59;48.74;101957.72;7275730;19;152892;-61
2022/07/14 04:40:05;;;;;;;;;;;;;;;26.56;48.62;101962.06;7278480;19;152276;-60
2022/07/14 04:42:32;;;;;;;;;;;;;;;26.57;48.41;101958.06;7276997;19;152601;-60
2022/07/14 04:44:59;;;;;;;;;;;;;;;26.57;48.39;101958.06;7286411;19;153552;-60
2022/07/14 04:47:26;;;;;;;;;;;;;;;26.58;48.09;101958.88;7279035;19;152134;-61
2022/07/14 04:52:44;;;;;;;;;;;;;;;26.58;47.36;101948.38;7279855;19;151946;-61
2022/07/14 04:55:11;;;;;;;;;;;;;;;26.58;47.21;101941.88;7278198;19;153223;-61
2022/07/14 04:57:38;;;;;;;;;;;;;;;26.58;47.01;101950.38;7273779;19;154370;-61
2022/07/14 05:00:05;;;;;;;;;;;;;;;26.55;46.46;101951.88;7279486;19;152341;-61
2022/07/14 05:02:31;;;;;;;;;;;;;;;26.56;46.88;101953.56;7277331;19;152598;-61
2022/07/14 05:04:59;;;;;;;;;;;;;;;26.55;46.53;101938.53;7278334;19;154511;-61
2022/07/14 05:07:25;;;;;;;;;;;;;;;26.50;46.95;101935.00;7286592;19;152414;-61
2022/07/14 05:09:52;;;;;;;;;;;;;;;26.50;46.35;101937.84;7276832;19;153931;-61
2022/07/14 05:12:19;;;;;;;;;;;;;;;26.49;46.26;101939.00;7277731;19;152547;-61
2022/07/14 05:14:45;;;;;;;;;;;;;;;26.55;46.08;101949.88;7278609;19;152801;-61
2022/07/14 05:17:13;;;;;;;;;;;;;;;26.49;45.77;101941.84;7275717;19;153285;-61
2022/07/14 05:19:42;;;;;;;;;;;;;;;26.45;46.21;101937.97;7279816;19;153033;-61
2022/07/14 05:22:09;;;;;;;;;;;;;;;26.46;45.64;101934.00;7277165;19;154089;-61
2022/07/14 05:24:35;;;;;;;;;;;;;;;26.43;45.95;101928.97;7277821;19;153240;-61
2022/07/14 05:27:03;;;;;;;;;;;;;;;26.37;46.03;101933.94;7282461;19;154304;-61
2022/07/14 05:29:30;;;;;;;;;;;;;;;26.38;46.50;101923.44;7276379;19;154074;-61
2022/07/14 05:31:57;;;;;;;;;;;;;;;26.35;45.56;101933.41;7277905;19;153122;-61
2022/07/14 05:34:29;;;;;;;;;;;;;;;26.44;45.77;101939.97;7279201;19;152688;-61
2022/07/14 05:36:56;;;;;;;;;;;;;;;26.37;45.74;101945.28;7274819;19;154661;-61
2022/07/14 05:39:23;;;;;;;;;;;;;;;26.33;45.86;101944.25;7277525;19;151873;-60
2022/07/14 05:41:50;;;;;;;;;;;;;;;26.32;45.58;101951.09;7276528;19;152545;-60
2022/07/14 05:44:16;;;;;;;;;;;;;;;26.33;45.15;101949.09;7276279;19;154369;-61
2022/07/14 05:46:43;;;;;;;;;;;;;;;26.31;45.51;101945.72;7277751;19;152274;-61
2022/07/14 05:49:10;;;;;;;;;;;;;;;26.33;45.20;101946.25;7282143;19;153040;-61
2022/07/14 05:51:36;;;;;;;;;;;;;;;26.29;45.86;101948.06;7276432;19;152962;-61
2022/07/14 05:54:03;;;;;;;;;;;;;;;26.32;45.53;101955.91;7281950;19;153429;-61
2022/07/14 05:56:30;;;;;;;;;;;;;;;26.30;45.64;101955.41;7281283;19;153829;-61
2022/07/14 05:58:56;;;;;;;;;;;;;;;26.34;45.28;101951.59;7283890;19;152017;-61
2022/07/14 06:01:23;;;;;;;;;;;;;;;26.33;45.24;101951.91;7282429;19;152445;-61
2022/07/14 06:03:56;;;;;;;;;;;;;;;26.29;45.00;101954.56;7284025;19;153801;-61
2022/07/14 06:06:24;;;;;;;;;;;;;;;26.31;44.73;101959.91;7281503;19;152493;-61
2022/07/14 06:08:51;;;;;;;;;;;;;;;26.28;44.69;101960.56;7284216;19;152973;-61
2022/07/14 06:11:18;;;;;;;;;;;;;;;26.27;44.58;101959.72;7287879;19;152596;-61
2022/07/14 06:13:50;;;;;;;;;;;;;;;26.25;44.80;101956.38;7284420;19;152986;-61
2022/07/14 06:16:19;;;;;;;;;;;;;;;26.25;44.76;101972.53;7282214;19;153452;-62
2022/07/14 06:18:45;;;;;;;;;;;;;;;26.19;45.95;101965.28;7281620;19;152048;-63
2022/07/14 06:21:12;;;;;;;;;;;;;;;26.22;44.94;101962.66;7282905;19;156132;-62
2022/07/14 06:23:46;;;;;;;;;;;;;;;26.24;44.50;101980.19;7281461;19;154966;-62
2022/07/14 06:26:13;;;;;;;;;;;;;;;26.16;44.67;101971.59;7280861;19;152141;-62
2022/07/14 06:28:41;;;;;;;;;;;;;;;26.17;45.24;101970.44;7283760;19;151975;-62
2022/07/14 06:31:08;;;;;;;;;;;;;;;26.15;45.43;101975.59;7282273;19;153263;-62
2022/07/14 06:33:36;;;;;;;;;;;;;;;26.13;45.58;101975.91;7291316;19;153751;-62
2022/07/14 06:36:02;;;;;;;;;;;;;;;26.12;45.48;101980.72;7280613;19;153763;-61
2022/07/14 06:38:29;;;;;;;;;;;;;;;26.12;45.64;101986.41;7281622;19;152715;-61
2022/07/14 06:40:56;;;;;;;;;;;;;;;26.11;45.44;101989.56;7282205;19;153862;-62
2022/07/14 06:43:22;;;;;;;;;;;;;;;26.10;45.48;101983.06;7281508;19;154239;-62
2022/07/14 06:45:49;;;;;;;;;;;;;;;26.09;45.56;101992.72;7283851;19;152320;-62
2022/07/14 06:48:16;;;;;;;;;;;;;;;26.11;45.16;101992.41;7283586;19;154087;-62
2022/07/14 06:50:43;;;;;;;;;;;;;;;26.04;44.49;101990.00;7281454;19;153206;-63
2022/07/14 06:53:10;;;;;;;;;;;;;;;26.01;41.43;101995.47;7281315;19;153357;-62
2022/07/14 06:55:37;;;;;;;;;;;;;;;25.92;40.51;101997.41;7286468;19;153509;-62
2022/07/14 06:58:03;;;;;;;;;;;;;;;25.81;39.69;101993.97;7279547;19;152611;-62
2022/07/14 07:00:30;;;;;;;;;;;;;;;25.72;39.59;101992.22;7279576;19;152923;-62
2022/07/14 07:02:57;;;;;;;;;;;;;;;25.68;39.58;101998.50;7278567;19;153209;-62
2022/07/14 07:08:09;;;;;;;;;;;;;;;25.52;39.21;102002.00;7283076;19;152305;-62
2022/07/14 07:10:40;;;;;;;;;;;;;;;25.47;39.30;102002.94;7278199;19;153566;-61
2022/07/14 07:13:08;;;;;;;;;;;;;;;25.42;39.08;101999.38;7281421;19;153771;-62
2022/07/14 07:15:38;;;;;;;;;;;;;;;25.37;39.24;102005.16;7280826;19;152712;-62
2022/07/14 07:18:06;;;;;;;;;;;;;;;25.28;39.36;101999.38;7286950;19;152321;-63
2022/07/14 07:20:34;;;;;;;;;;;;;;;25.26;39.40;101996.03;7281957;19;152789;-62
2022/07/14 07:23:01;;;;;;;;;;;;;;;25.28;39.52;102012.69;7280680;19;153953;-62
2022/07/14 07:25:27;;;;;;;;;;;;;;;25.19;39.17;102002.13;7279949;19;152831;-62
2022/07/14 07:27:54;;;;;;;;;;;;;;;25.15;39.33;102009.56;7280892;19;152550;-62
2022/07/14 07:30:21;;;;;;;;;;;;;;;25.03;39.42;102000.75;7279280;19;154077;-64
2022/07/14 07:32:49;;;;;;;;;;;;;;;25.08;40.00;101999.81;7280411;19;152065;-63
2022/07/14 07:35:15;;;;;;;;;;;;;;;25.05;39.85;102001.28;7279334;19;152952;-63
2022/07/14 07:37:42;;;;;;;;;;;;;;;25.06;39.93;102008.63;7286209;19;153903;-63
2022/07/14 07:40:09;;;;;;;;;;;;;;;25.08;40.02;102006.28;7279680;19;153682;-63
2022/07/14 07:42:36;;;;;;;;;;;;;;;25.15;39.91;102005.91;7277022;19;154363;-63
2022/07/14 07:45:03;;;;;;;;;;;;;;;25.15;40.03;102011.56;7282287;19;151546;-63
2022/07/14 07:47:30;;;;;;;;;;;;;;;25.11;40.21;102013.34;7281393;19;151986;-63
2022/07/14 07:49:57;;;;;;;;;;;;;;;25.14;39.98;102010.72;7280885;19;154383;-63
2022/07/14 07:52:24;;;;;;;;;;;;;;;25.19;39.73;102007.78;7280567;19;152770;-63
2022/07/14 07:54:50;;;;;;;;;;;;;;;25.19;39.20;102009.78;7280101;19;152120;-63
2022/07/14 07:57:37;;;;;;;;;;;;;;;25.15;39.69;102009.56;7277041;19;156655;-63
2022/07/14 08:00:04;;;;;;;;;;;;;;;25.21;39.35;102010.31;7288727;19;152307;-63
2022/07/14 08:02:31;;;;;;;;;;;;;;;25.26;39.33;102000.88;7277625;19;153905;-63
2022/07/14 08:04:58;;;;;;;;;;;;;;;25.17;39.57;102004.41;7280523;19;152181;-63
2022/07/14 08:07:25;;;;;;;;;;;;;;;25.13;40.31;101999.69;7279287;19;153884;-62
2022/07/14 08:09:52;;;;;;;;;;;;;;;25.17;39.65;102003.56;7279102;19;152570;-63
2022/07/14 08:12:24;;;;;;;;;;;;;;;25.17;39.58;102003.56;7279134;19;151776;-63
2022/07/14 08:14:54;;;;;;;;;;;;;;;25.17;40.31;102001.59;7279926;19;152572;-63
2022/07/14 08:17:21;;;;;;;;;;;;;;;25.12;39.82;102004.50;7277593;19;152176;-63
2022/07/14 08:19:48;;;;;;;;;;;;;;;25.11;40.10;101997.22;7281166;19;152957;-63
2022/07/14 08:22:20;;;;;;;;;;;;;;;25.10;40.29;101998.34;7285469;19;152308;-63
2022/07/14 08:24:47;;;;;;;;;;;;;;;25.18;40.11;102002.44;7277990;19;153039;-63
2022/07/14 08:27:14;;;;;;;;;;;;;;;25.16;40.25;102001.91;7277208;19;155585;-63
2022/07/14 08:29:42;;;;;;;;;;;;;;;25.15;40.06;101998.25;7278216;19;153307;-62
2022/07/14 08:32:08;;;;;;;;;;;;;;;25.14;40.12;102002.22;7279316;19;151996;-63
2022/07/14 08:34:35;;;;;;;;;;;;;;;25.18;39.97;102000.44;7281152;19;154991;-63
2022/07/14 08:37:02;;;;;;;;;;;;;;;25.20;39.68;101998.16;7274690;19;154154;-63
2022/07/14 08:39:29;;;;;;;;;;;;;;;25.20;39.78;102000.13;7276983;19;153509;-62
2022/07/14 08:41:56;;;;;;;;;;;;;;;25.16;39.71;101996.25;7278283;19;152433;-63
2022/07/14 08:44:24;;;;;;;;;;;;;;;25.22;39.39;101990.16;7286304;19;153125;-62
2022/07/14 08:46:51;;;;;;;;;;;;;;;25.21;38.96;101985.66;7279376;19;152843;-63
2022/07/14 08:49:18;;;;;;;;;;;;;;;25.23;39.09;101991.00;7278758;19;152948;-62
2022/07/14 08:52:05;;;;;;;;;;;;;;;25.21;38.65;101988.47;7278348;19;151809;-64
2022/07/14 08:54:36;;;;;;;;;;;;;;;25.16;38.74;101991.44;7278552;19;153114;-64
2022/07/14 08:57:02;;;;;;;;;;;;;;;25.19;38.87;101998.44;7274973;19;153974;-64
2022/07/14 08:59:29;;;;;;;;;;;;;;;25.25;38.39;101991.53;7277098;19;152031;-64
2022/07/14 09:01:59;;;;;;;;;;;;;;;25.33;38.36;101992.78;7275879;19;152175;-64
2022/07/14 09:04:26;;;;;;;;;;;;;;;25.29;38.09;101986.94;7278139;19;152635;-64
2022/07/14 09:06:54;;;;;;;;;;;;;;;25.27;38.20;101988.38;7285530;19;152943;-64
2022/07/14 09:09:22;;;;;;;;;;;;;;;25.19;38.25;101992.78;7276981;19;154359;-64
2022/07/14 09:11:54;;;;;;;;;;;;;;;25.22;38.58;101990.16;7277749;19;152115;-64
2022/07/14 09:14:28;;;;;;;;;;;;;;;25.20;38.73;101991.66;7280626;19;153469;-65
2022/07/14 09:17:14;;;;;;;;;;;;;;;25.19;38.45;101990.81;7278403;19;153282;-64
2022/07/14 09:20:20;;;;;;;;;;;;;;;25.23;38.52;102000.34;7277298;19;152423;-64
2022/07/14 09:22:47;;;;;;;;;;;;;;;25.22;38.66;101986.50;7274176;19;153928;-64
2022/07/14 09:25:15;;;;;;;;;;;;;;;25.25;38.58;101988.72;7273181;19;153374;-64
2022/07/14 09:27:42;;;;;;;;;;;;;;;25.26;38.88;101981.06;7275216;19;152511;-64
2022/07/14 09:30:12;;;;;;;;;;;;;;;25.26;38.17;101981.06;7292721;19;152864;-64
2022/07/14 09:32:46;;;;;;;;;;;;;;;25.26;38.25;101986.72;7283727;19;152873;-64
2022/07/14 09:35:17;;;;;;;;;;;;;;;25.35;38.49;101987.66;7284941;19;152491;-64
2022/07/14 09:37:45;;;;;;;;;;;;;;;25.33;38.25;101978.63;7281185;19;154731;-64
2022/07/14 09:40:15;;;;;;;;;;;;;;;25.36;37.90;101978.84;7282817;19;152194;-64
2022/07/14 09:42:50;;;;;;;;;;;;;;;25.36;37.77;101981.66;7282854;19;152053;-63
2022/07/14 09:45:18;;;;;;;;;;;;;;;25.37;37.33;101985.34;7282628;19;153562;-64
2022/07/14 09:47:51;;;;;;;;;;;;;;;25.40;37.42;101984.69;7283798;19;155101;-63
2022/07/14 09:50:34;;;;;;;;;;;;;;;25.43;37.47;101993.41;7290880;19;152657;-63
2022/07/14 09:53:20;;;;;;;;;;;;;;;25.40;37.74;101987.53;7282756;19;151907;-63
2022/07/14 09:55:52;;;;;;;;;;;;;;;25.48;37.25;101989.63;7283290;19;152132;-64
2022/07/14 09:58:32;;;;;;;;;;;;;;;25.40;37.66;101984.69;7281806;19;154853;-64
2022/07/14 10:01:04;;;;;;;;;;;;;;;25.47;37.22;101987.94;7282722;19;152312;-64
2022/07/14 10:03:33;;;;;;;;;;;;;;;25.48;37.27;101984.81;7281563;19;152145;-64
2022/07/14 10:06:02;;;;;;;;;;;;;;;25.50;36.64;101985.31;7242655;19;156685;-64
2022/07/14 10:08:51;;;;;;;;;;;;;;;25.47;36.59;101988.78;7278780;19;153359;-64
2022/07/14 10:11:18;;;;;;;;;;;;;;;25.52;36.18;101990.66;7275058;19;153181;-64
2022/07/14 10:13:45;;;;;;;;;;;;;;;25.52;36.37;101985.84;7290363;19;153526;-64
2022/07/14 10:16:13;;;;;;;;;;;;;;;25.48;36.31;101987.66;7283507;19;152920;-64
2022/07/14 10:18:42;;;;;;;;;;;;;;;25.44;36.99;101997.09;7282900;19;153151;-64
2022/07/14 10:21:10;;;;;;;;;;;;;;;25.51;36.59;102001.16;7281357;19;153889;-64
2022/07/14 10:23:45;;;;;;;;;;;;;;;25.49;36.73;101996.94;7283540;19;153224;-64
2022/07/14 10:26:20;;;;;;;;;;;;;;;25.50;35.91;101987.31;7280593;19;153586;-64
2022/07/14 10:28:47;;;;;;;;;;;;;;;25.48;36.34;101995.28;7283825;19;152224;-65
2022/07/14 10:31:20;;;;;;;;;;;;;;;25.46;36.30;101997.59;7282230;19;152814;-64
2022/07/14 10:33:56;;;;;;;;;;;;;;;25.55;36.06;102004.22;7282963;19;154196;-63
2022/07/14 10:36:32;;;;;;;;;;;;;;;25.51;35.87;101994.66;7289653;19;154712;-64
2022/07/14 10:39:08;;;;;;;;;;;;;;;25.52;36.62;101999.16;7279600;19;154705;-64
2022/07/14 10:41:47;;;;;;;;;;;;;;;25.58;35.99;102004.41;7281575;19;154815;-64
2022/07/14 10:44:22;;;;;;;;;;;;;;;25.58;34.92;102003.56;7281596;19;153698;-64
2022/07/14 10:46:50;;;;;;;;;;;;;;;25.55;35.64;102001.38;7279845;19;153526;-64
2022/07/14 10:49:18;;;;;;;;;;;;;;;25.52;35.31;102000.00;7283982;19;152735;-64
2022/07/14 10:51:45;;;;;;;;;;;;;;;25.54;35.86;101999.69;7279857;19;153038;-64
2022/07/14 10:54:16;;;;;;;;;;;;;;;25.53;37.35;102003.66;7281253;19;154168;-64
2022/07/14 10:57:09;;;;;;;;;;;;;;;25.55;35.68;101998.56;7280090;19;152695;-64
2022/07/14 10:59:37;;;;;;;;;;;;;;;25.58;35.94;102006.41;7285841;19;152278;-64
2022/07/14 11:02:13;;;;;;;;;;;;;;;25.60;35.08;101998.44;7281608;19;152482;-64
2022/07/14 11:05:17;;;;;;;;;;;;;;;25.66;34.45;102009.34;7283668;19;153524;-64
2022/07/14 11:08:07;;;;;;;;;;;;;;;25.68;36.20;102014.66;7279983;19;153251;-64
2022/07/14 11:10:37;;;;;;;;;;;;;;;25.70;36.39;102006.72;7279842;19;153828;-64
2022/07/14 11:13:06;;;;;;;;;;;;;;;25.70;37.03;102003.03;7281096;19;153183;-64
2022/07/14 11:15:40;;;;;;;;;;;;;;;25.73;37.31;102008.88;7281119;19;153349;-64
2022/07/14 11:18:26;;;;;;;;;;;;;;;25.76;37.15;102013.09;7282810;19;151762;-64
2022/07/14 11:20:56;;;;;;;;;;;;;;;25.79;37.28;102018.94;7281197;19;153462;-64
2022/07/14 11:23:24;;;;;;;;;;;;;;;25.81;35.24;102018.59;7288201;19;154408;-64
2022/07/14 11:25:52;;;;;;;;;;;;;;;25.84;35.41;102013.16;7281557;19;152057;-64
2022/07/14 11:28:37;;;;;;;;;;;;;;;25.88;36.90;102016.19;7277985;19;155177;-64
2022/07/14 11:31:22;;;;;;;;;;;;;;;25.86;37.47;102015.66;7281501;19;151762;-64
2022/07/14 11:36:39;;;;;;;;;;;;;;;25.91;37.50;102021.22;7278655;19;154652;-64
2022/07/14 11:39:22;;;;;;;;;;;;;;;25.90;37.97;102005.38;7280814;19;152985;-64
2022/07/14 11:42:09;;;;;;;;;;;;;;;25.91;38.26;102004.22;7279970;19;152162;-64
2022/07/14 11:44:36;;;;;;;;;;;;;;;25.94;36.78;102007.25;7278620;19;154584;-64
2022/07/14 11:47:04;;;;;;;;;;;;;;;25.95;36.65;102013.75;7287311;19;152880;-64
2022/07/14 11:49:32;;;;;;;;;;;;;;;25.99;36.89;102014.78;7280272;19;152843;-63
2022/07/14 11:51:59;;;;;;;;;;;;;;;25.98;36.99;102010.28;7277877;19;152785;-64
2022/07/14 11:54:26;;;;;;;;;;;;;;;25.98;37.05;101998.97;7281335;19;155179;-64
2022/07/14 11:57:03;;;;;;;;;;;;;;;26.00;37.13;102003.13;7278129;19;153016;-64
2022/07/14 11:59:30;;;;;;;;;;;;;;;26.02;37.24;101997.16;7281495;19;152215;-64
2022/07/14 12:02:14;;;;;;;;;;;;;;;25.99;37.23;102006.28;7278585;19;152504;-64
2022/07/14 12:04:48;;;;;;;;;;;;;;;26.00;37.33;102002.28;7280578;19;152701;-64
2022/07/14 12:07:15;;;;;;;;;;;;;;;26.00;35.99;102003.13;7286440;19;152210;-64
2022/07/14 12:09:42;;;;;;;;;;;;;;;26.06;36.17;101996.19;7278786;19;153836;-64
2022/07/14 12:12:12;;;;;;;;;;;;;;;26.05;36.89;102005.00;7278879;19;152642;-64
2022/07/14 12:14:50;;;;;;;;;;;;;;;26.03;36.97;101987.50;7280864;19;153632;-64
2022/07/14 12:17:17;;;;;;;;;;;;;;;26.04;36.86;101989.16;7278120;19;156458;-64
2022/07/14 12:19:45;;;;;;;;;;;;;;;26.09;35.80;101994.72;7280441;19;153379;-64
2022/07/14 12:22:12;;;;;;;;;;;;;;;26.08;36.57;101988.19;7278237;19;152308;-64
2022/07/14 12:24:39;;;;;;;;;;;;;;;26.07;37.14;101992.19;7278484;19;152713;-64
2022/07/14 12:27:07;;;;;;;;;;;;;;;26.05;37.28;101983.19;7278302;19;152467;-64
2022/07/14 12:29:34;;;;;;;;;;;;;;;26.10;37.24;101982.22;7286409;19;152076;-64
2022/07/14 12:32:01;;;;;;;;;;;;;;;26.09;37.59;101983.38;7279231;19;153527;-64
2022/07/14 12:34:29;;;;;;;;;;;;;;;26.10;37.97;101983.06;7281302;19;152233;-64
2022/07/14 12:37:00;;;;;;;;;;;;;;;26.13;37.63;101978.75;7277450;19;154374;-64
2022/07/14 12:39:31;;;;;;;;;;;;;;;26.11;37.79;101986.75;7278962;19;152761;-64
2022/07/14 12:41:58;;;;;;;;;;;;;;;26.25;38.68;101992.38;7279285;19;153619;-59
2022/07/14 12:44:25;;;;;;;;;;;;;;;26.12;38.63;101994.06;7277138;19;153953;-65